Time;durP1;ratioP1;P1;durP2;ratioP2;P2;SDS_P1;SDS_P2;PMS_P1;PMS_P2;Temp;Humidity;BMP_temperature;BMP_pressure;BME280_temperature;BME280_humidity;BME280_pressure;Samples;Min_cycle;Max_cycle;Signal;HPM_P1;HPM_P2
2020/12/02 00:02:19;;;;;;;29.73;14.30;;;;;;;-4.61;100.00;101582.38;4902920;29;20484;-72
2020/12/02 00:04:45;;;;;;;25.43;14.03;;;;;;;-4.44;100.00;101581.53;4907983;29;20220;-72
2020/12/02 00:07:12;;;;;;;25.60;12.90;;;;;;;-4.47;100.00;101583.06;4904548;29;20529;-72
2020/12/02 00:09:37;;;;;;;23.67;12.73;;;;;;;-4.35;100.00;101593.00;4919343;29;20471;-72
2020/12/02 00:12:03;;;;;;;25.23;13.07;;;;;;;-4.38;100.00;101589.50;4904239;29;21004;-72
2020/12/02 00:14:31;;;;;;;24.87;11.50;;;;;;;-4.41;100.00;101588.47;4906107;29;20662;-72
2020/12/02 00:16:58;;;;;;;23.07;12.67;;;;;;;-4.41;100.00;101599.53;4934565;29;20239;-72
2020/12/02 00:19:25;;;;;;;25.73;13.47;;;;;;;-4.44;100.00;101601.03;4908609;29;20560;-72
2020/12/02 00:22:05;;;;;;;21.90;12.90;;;;;;;-4.63;100.00;101597.56;4916954;29;21065;-72
2020/12/02 00:24:33;;;;;;;22.43;12.17;;;;;;;-4.86;100.00;101608.22;4907517;29;20885;-72
2020/12/02 00:27:00;;;;;;;24.30;12.97;;;;;;;-4.82;100.00;101605.03;4904709;29;20504;-72
2020/12/02 00:29:26;;;;;;;20.77;12.00;;;;;;;-4.69;100.00;101598.94;4906365;29;20514;-72
2020/12/02 00:31:52;;;;;;;20.30;11.17;;;;;;;-4.63;100.00;101600.09;4904996;29;20508;-72
2020/12/02 00:34:18;;;;;;;24.57;12.60;;;;;;;-4.65;100.00;101599.16;4936143;29;20335;-72
2020/12/02 00:36:45;;;;;;;23.43;12.33;;;;;;;-4.92;100.00;101595.16;4905335;29;20732;-72
2020/12/02 00:39:11;;;;;;;23.37;12.60;;;;;;;-4.66;100.00;101599.97;4931618;29;20200;-72
2020/12/02 00:41:37;;;;;;;20.07;10.87;;;;;;;-4.66;100.00;101605.06;4917473;29;20853;-72
2020/12/02 00:44:03;;;;;;;22.20;12.00;;;;;;;-4.66;100.00;101602.50;4902099;29;20476;-72
2020/12/02 00:46:29;;;;;;;21.30;11.40;;;;;;;-4.60;100.00;101600.25;4922851;29;20301;-72
2020/12/02 00:48:55;;;;;;;26.83;12.90;;;;;;;-4.65;100.00;101609.31;4901643;29;21044;-72
2020/12/02 00:51:23;;;;;;;18.73;10.90;;;;;;;-4.77;100.00;101614.69;4915841;29;20495;-72
2020/12/02 00:53:49;;;;;;;27.00;12.87;;;;;;;-4.86;100.00;101608.22;4929480;29;20456;-72
2020/12/02 00:56:19;;;;;;;25.53;12.60;;;;;;;-4.80;100.00;101611.06;4907517;29;20582;-72
2020/12/02 00:58:52;;;;;;;27.40;13.13;;;;;;;-4.94;100.00;101610.38;4902492;29;20445;-72
2020/12/02 01:01:24;;;;;;;23.00;12.07;;;;;;;-4.87;100.00;101614.09;4902163;29;20575;-73
2020/12/02 01:03:51;;;;;;;20.57;10.70;;;;;;;-4.80;100.00;101616.16;4905361;29;20469;-72
2020/12/02 01:06:17;;;;;;;24.60;12.73;;;;;;;-4.91;100.00;101607.97;4905014;29;20845;-72
2020/12/02 01:08:46;;;;;;;22.47;11.87;;;;;;;-4.96;100.00;101606.84;4904910;29;20512;-72
2020/12/02 01:11:16;;;;;;;23.17;12.67;;;;;;;-5.04;100.00;101605.59;4902526;29;20489;-72
2020/12/02 01:13:43;;;;;;;25.27;12.03;;;;;;;-5.08;100.00;101611.28;4938342;29;20456;-72
2020/12/02 01:16:12;;;;;;;24.10;11.93;;;;;;;-4.87;100.00;101607.38;4902825;29;20460;-73
2020/12/02 01:18:38;;;;;;;22.77;12.10;;;;;;;-5.01;100.00;101611.72;4908363;29;20541;-72
2020/12/02 01:21:15;;;;;;;26.20;13.17;;;;;;;-5.18;100.00;101605.72;4903728;29;20473;-72
2020/12/02 01:23:44;;;;;;;21.47;11.87;;;;;;;-5.15;100.00;101607.56;4916867;29;20450;-72
2020/12/02 01:26:10;;;;;;;21.93;12.03;;;;;;;-5.11;100.00;101596.75;4919177;29;20496;-72
2020/12/02 01:28:38;;;;;;;22.93;11.17;;;;;;;-5.22;100.00;101602.97;4938845;29;20476;-73
2020/12/02 01:31:06;;;;;;;24.17;11.57;;;;;;;-5.05;100.00;101597.06;4901824;29;20463;-72
2020/12/02 01:33:32;;;;;;;25.17;12.20;;;;;;;-5.09;100.00;101602.81;4920633;29;20543;-72
2020/12/02 01:35:58;;;;;;;22.30;11.37;;;;;;;-4.97;100.00;101597.50;4902332;29;20985;-72
2020/12/02 01:38:32;;;;;;;19.80;10.90;;;;;;;-5.11;100.00;101590.81;4909614;29;20513;-72
2020/12/02 01:40:58;;;;;;;17.80;10.90;;;;;;;-4.92;100.00;101595.16;4901374;29;20809;-72
2020/12/02 01:43:24;;;;;;;22.20;11.97;;;;;;;-4.88;100.00;101587.78;4920603;29;20625;-72
2020/12/02 01:45:54;;;;;;;21.90;11.17;;;;;;;-5.23;100.00;101585.94;4902400;29;20524;-72
2020/12/02 01:48:41;;;;;;;20.37;11.40;;;;;;;-5.16;100.00;101591.41;4907304;29;20536;-72
2020/12/02 01:51:16;;;;;;;23.07;11.67;;;;;;;-5.08;100.00;101591.84;4933574;29;20453;-72
2020/12/02 01:53:49;;;;;;;25.40;11.97;;;;;;;-5.04;100.00;101591.19;4918775;29;20873;-72
2020/12/02 01:56:21;;;;;;;20.60;11.27;;;;;;;-5.31;100.00;101590.63;4911597;29;20496;-72
2020/12/02 01:59:00;;;;;;;27.40;13.50;;;;;;;-5.22;100.00;101593.66;4938018;29;20505;-72
2020/12/02 02:01:37;;;;;;;20.10;11.37;;;;;;;-5.10;100.00;101587.44;4904899;29;20488;-73
2020/12/02 02:04:05;;;;;;;17.97;10.53;;;;;;;-5.17;100.00;101586.25;4906907;29;20491;-72
2020/12/02 02:06:49;;;;;;;23.23;11.77;;;;;;;-5.39;100.00;101587.66;4902853;29;20483;-72
2020/12/02 02:09:16;;;;;;;22.77;10.37;;;;;;;-5.32;100.00;101584.66;4918581;29;20517;-73
2020/12/02 02:11:49;;;;;;;20.60;11.20;;;;;;;-5.23;100.00;101579.19;4921178;29;20564;-72
2020/12/02 02:14:29;;;;;;;19.70;11.80;;;;;;;-5.20;100.00;101581.88;4919767;29;20489;-72
2020/12/02 02:16:56;;;;;;;19.83;10.63;;;;;;;-5.27;100.00;101576.41;4937206;29;20472;-72
2020/12/02 02:19:25;;;;;;;22.57;10.90;;;;;;;-5.17;100.00;101583.69;4907213;29;20449;-74
2020/12/02 02:21:53;;;;;;;21.60;12.00;;;;;;;-5.36;100.00;101576.78;4937070;29;20483;-72
2020/12/02 02:24:19;;;;;;;19.60;10.97;;;;;;;-5.47;100.00;101580.41;4899259;29;20488;-72
2020/12/02 02:26:50;;;;;;;20.33;10.93;;;;;;;-5.26;100.00;101573.94;4909798;29;20453;-72
2020/12/02 02:29:21;;;;;;;18.20;10.70;;;;;;;-5.33;100.00;101569.31;4929997;29;20878;-72
2020/12/02 02:31:52;;;;;;;20.70;10.60;;;;;;;-5.23;100.00;101570.69;4904515;29;20486;-72
2020/12/02 02:34:19;;;;;;;23.80;12.00;;;;;;;-5.25;100.00;101575.69;4906263;29;20457;-72
2020/12/02 02:36:46;;;;;;;22.20;11.27;;;;;;;-5.23;100.00;101573.22;4906764;29;20462;-73
2020/12/02 02:39:15;;;;;;;22.33;12.07;;;;;;;-5.37;100.00;101575.03;4906362;29;20464;-72
2020/12/02 02:41:42;;;;;;;21.67;11.57;;;;;;;-5.29;100.00;101576.31;4922249;29;20492;-72
2020/12/02 02:44:11;;;;;;;22.20;10.83;;;;;;;-5.42;100.00;101576.44;4906527;29;20459;-72
2020/12/02 02:46:36;;;;;;;21.63;11.27;;;;;;;-5.34;100.00;101577.75;4911822;29;20452;-72
2020/12/02 02:49:05;;;;;;;24.63;11.93;;;;;;;-5.27;100.00;101584.03;4936098;29;20578;-72
2020/12/02 02:51:31;;;;;;;20.43;11.47;;;;;;;-5.51;100.00;101580.22;4942815;29;20220;-72
2020/12/02 02:53:57;;;;;;;16.70;10.40;;;;;;;-5.41;100.00;101579.06;4907180;29;20445;-72
2020/12/02 02:56:23;;;;;;;21.17;11.70;;;;;;;-5.55;100.00;101574.91;4905168;29;20275;-72
2020/12/02 02:58:49;;;;;;;24.43;12.17;;;;;;;-5.59;100.00;101570.47;4909966;29;20473;-72
2020/12/02 03:01:16;;;;;;;23.60;11.70;;;;;;;-5.46;100.00;101572.00;4910147;29;20488;-72
2020/12/02 03:03:42;;;;;;;21.13;11.63;;;;;;;-5.39;100.00;101579.16;4925682;29;20453;-74
2020/12/02 03:06:09;;;;;;;25.27;12.47;;;;;;;-5.43;100.00;101575.59;4907900;29;20540;-72
2020/12/02 03:08:36;;;;;;;21.53;11.50;;;;;;;-5.43;100.00;101570.50;4943177;29;20212;-73
2020/12/02 03:11:06;;;;;;;23.60;10.17;;;;;;;-5.60;100.00;101576.34;4908854;29;20914;-72
2020/12/02 03:13:39;;;;;;;19.00;10.83;;;;;;;-5.37;100.00;101569.94;4916576;29;20464;-72
2020/12/02 03:16:11;;;;;;;21.67;11.57;;;;;;;-5.63;100.00;101577.03;4919964;29;20488;-73
2020/12/02 03:18:40;;;;;;;22.67;11.43;;;;;;;-5.43;100.00;101572.19;4925371;29;20539;-72
2020/12/02 03:21:12;;;;;;;17.17;10.23;;;;;;;-5.34;100.00;101575.19;4902539;29;20476;-72
2020/12/02 03:23:39;;;;;;;19.70;10.50;;;;;;;-5.36;100.00;101566.63;4907000;29;20488;-72
2020/12/02 03:26:05;;;;;;;23.73;11.83;;;;;;;-5.34;100.00;101567.56;4905219;29;20467;-72
2020/12/02 03:28:31;;;;;;;22.53;11.90;;;;;;;-5.29;100.00;101565.25;4907802;29;20484;-72
2020/12/02 03:31:01;;;;;;;18.13;10.37;;;;;;;-5.45;100.00;101567.00;4906282;29;20460;-72
2020/12/02 03:33:28;;;;;;;22.17;12.13;;;;;;;-5.54;100.00;101564.84;4910374;29;20452;-72
2020/12/02 03:35:56;;;;;;;19.43;10.83;;;;;;;-5.39;100.00;101566.44;4910101;29;20464;-73
2020/12/02 03:38:22;;;;;;;21.27;11.70;;;;;;;-5.33;100.00;101556.59;4906470;29;20485;-72
2020/12/02 03:40:48;;;;;;;27.13;11.70;;;;;;;-5.25;100.00;101568.06;4936286;29;20556;-72
2020/12/02 03:43:14;;;;;;;20.67;11.83;;;;;;;-5.32;100.00;101564.31;4908676;29;20568;-72
2020/12/02 03:45:43;;;;;;;20.97;11.43;;;;;;;-5.35;100.00;101554.00;4910601;29;20456;-72
2020/12/02 03:48:12;;;;;;;24.80;12.03;;;;;;;-5.33;100.00;101556.59;4931663;29;21362;-72
2020/12/02 03:50:38;;;;;;;21.90;11.60;;;;;;;-5.16;100.00;101557.50;4908599;29;20456;-72
2020/12/02 03:53:06;;;;;;;25.53;12.27;;;;;;;-5.18;100.00;101562.50;4938429;28;20567;-72
2020/12/02 03:55:32;;;;;;;22.70;12.43;;;;;;;-5.16;100.00;101558.34;4941280;29;20489;-72
2020/12/02 03:57:58;;;;;;;22.43;11.80;;;;;;;-5.07;100.00;101560.50;4906873;29;20476;-73
2020/12/02 04:00:24;;;;;;;24.00;12.03;;;;;;;-5.10;100.00;101565.47;4907240;29;21005;-72
2020/12/02 04:02:51;;;;;;;23.93;12.50;;;;;;;-5.05;100.00;101565.69;4904804;29;20565;-72
2020/12/02 04:05:16;;;;;;;24.63;12.37;;;;;;;-4.98;100.00;101562.66;4906732;29;20208;-72
2020/12/02 04:07:42;;;;;;;21.43;11.63;;;;;;;-5.04;100.00;101562.34;4907797;29;20513;-72
2020/12/02 04:10:09;;;;;;;25.33;13.43;;;;;;;-4.93;100.00;101562.91;4905078;29;20470;-72
2020/12/02 04:12:35;;;;;;;24.97;13.20;;;;;;;-4.97;100.00;101556.78;4907407;29;20248;-72
2020/12/02 04:15:02;;;;;;;20.93;11.50;;;;;;;-4.89;100.00;101547.91;4907756;29;20916;-72
2020/12/02 04:17:27;;;;;;;22.50;11.97;;;;;;;-4.83;100.00;101549.88;4908344;29;20535;-72
2020/12/02 04:19:53;;;;;;;27.37;13.33;;;;;;;-4.77;100.00;101547.63;4903825;29;20993;-72
2020/12/02 04:22:20;;;;;;;27.00;13.73;;;;;;;-4.92;100.00;101554.47;4904071;29;20262;-72
2020/12/02 04:24:45;;;;;;;24.50;13.30;;;;;;;-4.67;100.00;101548.97;4905327;29;20224;-72
2020/12/02 04:27:12;;;;;;;26.10;13.80;;;;;;;-4.74;100.00;101557.09;4909921;29;20536;-73
2020/12/02 04:29:38;;;;;;;23.13;13.40;;;;;;;-4.72;100.00;101555.50;4933492;29;20207;-72
2020/12/02 04:32:05;;;;;;;22.17;13.43;;;;;;;-4.65;100.00;101555.88;4908913;29;20468;-72
2020/12/02 04:34:31;;;;;;;23.67;14.03;;;;;;;-4.69;100.00;101556.53;4903571;29;20200;-72
2020/12/02 04:36:57;;;;;;;25.83;13.70;;;;;;;-4.53;100.00;101562.41;4917329;29;20485;-72
2020/12/02 04:39:24;;;;;;;28.90;14.13;;;;;;;-4.58;100.00;101557.94;4903010;29;21016;-72
2020/12/02 04:41:50;;;;;;;27.47;13.53;;;;;;;-4.32;100.00;101552.41;4902643;29;20510;-72
2020/12/02 04:44:19;;;;;;;24.30;13.77;;;;;;;-4.39;100.00;101559.72;4907476;29;20500;-72
2020/12/02 04:46:46;;;;;;;24.37;13.33;;;;;;;-4.36;100.00;101561.56;4934823;29;20442;-72
2020/12/02 04:49:15;;;;;;;20.53;11.93;;;;;;;-4.37;100.00;101550.50;4917195;29;20501;-72
2020/12/02 04:51:42;;;;;;;26.93;13.47;;;;;;;-4.32;100.00;101549.88;4907930;29;20496;-72
2020/12/02 04:54:09;;;;;;;23.77;13.27;;;;;;;-4.33;100.00;101546.44;4906056;29;20461;-72
2020/12/02 04:56:39;;;;;;;25.10;13.17;;;;;;;-4.19;100.00;101548.00;4937015;29;20460;-73
2020/12/02 04:59:05;;;;;;;25.33;12.77;;;;;;;-4.24;100.00;101548.53;4915354;29;20459;-73
2020/12/02 05:01:34;;;;;;;28.27;14.07;;;;;;;-4.27;100.00;101541.66;4931773;28;20543;-72
2020/12/02 05:04:02;;;;;;;28.97;13.83;;;;;;;-4.10;100.00;101547.53;4909420;29;20456;-72
2020/12/02 05:06:35;;;;;;;29.70;14.33;;;;;;;-4.05;100.00;101550.31;4932229;29;20459;-72
2020/12/02 05:09:07;;;;;;;29.87;14.17;;;;;;;-3.96;100.00;101552.44;4914688;29;20541;-72
2020/12/02 05:11:33;;;;;;;29.33;15.37;;;;;;;-4.07;100.00;101547.69;4931821;28;20488;-72
2020/12/02 05:14:00;;;;;;;27.10;14.53;;;;;;;-3.91;100.00;101540.78;4916743;29;21101;-72
2020/12/02 05:16:27;;;;;;;29.07;15.67;;;;;;;-3.93;100.00;101545.81;4918606;29;20205;-72
2020/12/02 05:19:03;;;;;;;31.33;15.90;;;;;;;-3.97;100.00;101540.47;4915705;29;20517;-72
2020/12/02 05:21:31;;;;;;;29.63;16.43;;;;;;;-4.00;100.00;101537.00;4933448;29;20513;-72
2020/12/02 05:24:06;;;;;;;31.23;15.80;;;;;;;-4.03;100.00;101541.97;4907371;29;20458;-72
2020/12/02 05:26:34;;;;;;;29.27;15.13;;;;;;;-3.99;100.00;101537.88;4902833;29;20486;-72
2020/12/02 05:29:15;;;;;;;33.07;16.23;;;;;;;-3.92;100.00;101537.38;4906275;29;20490;-72
2020/12/02 05:31:44;;;;;;;32.87;14.90;;;;;;;-3.92;100.00;101539.94;4901391;29;20477;-72
2020/12/02 05:34:15;;;;;;;30.33;16.00;;;;;;;-3.94;100.00;101535.53;4904285;29;20450;-73
2020/12/02 05:36:46;;;;;;;34.03;16.20;;;;;;;-3.80;100.00;101534.50;4900363;29;20548;-72
2020/12/02 05:39:18;;;;;;;31.63;16.43;;;;;;;-3.81;100.00;101531.09;4927854;29;20483;-72
2020/12/02 05:41:51;;;;;;;33.03;16.83;;;;;;;-3.74;100.00;101534.81;4913855;29;21038;-72
2020/12/02 05:44:32;;;;;;;37.10;16.80;;;;;;;-3.77;100.00;101528.69;4913666;29;20458;-72
2020/12/02 05:47:00;;;;;;;34.67;16.07;;;;;;;-3.79;100.00;101530.31;4915525;29;20538;-72
2020/12/02 05:49:39;;;;;;;35.03;17.00;;;;;;;-3.67;100.00;101526.66;4898778;29;20480;-72
2020/12/02 05:52:12;;;;;;;37.57;16.13;;;;;;;-3.68;100.00;101534.22;4929546;29;20482;-72
2020/12/02 05:54:38;;;;;;;32.87;16.20;;;;;;;-3.67;100.00;101528.31;4930631;29;20457;-72
2020/12/02 05:57:06;;;;;;;40.37;17.13;;;;;;;-3.63;100.00;101532.75;4913770;29;20463;-72
2020/12/02 05:59:32;;;;;;;36.83;18.20;;;;;;;-3.52;100.00;101530.69;4903126;29;20459;-72
2020/12/02 06:02:00;;;;;;;35.57;17.23;;;;;;;-3.55;100.00;101516.16;4931429;28;20550;-72
2020/12/02 06:04:27;;;;;;;33.67;16.67;;;;;;;-3.55;100.00;101523.78;4930036;29;20214;-72
2020/12/02 06:06:54;;;;;;;34.73;17.63;;;;;;;-3.50;100.00;101522.31;4930563;29;21028;-72
2020/12/02 06:09:27;;;;;;;34.40;16.90;;;;;;;-3.62;100.00;101531.97;4900968;29;20465;-72
2020/12/02 06:12:02;;;;;;;34.17;16.40;;;;;;;-3.64;100.00;101524.25;4920790;29;20476;-72
2020/12/02 06:14:30;;;;;;;41.03;17.67;;;;;;;-3.56;100.00;101519.47;4901257;29;20836;-73
2020/12/02 06:16:56;;;;;;;30.77;16.20;;;;;;;-3.45;100.00;101523.41;4902386;29;20454;-72
2020/12/02 06:19:27;;;;;;;30.80;16.90;;;;;;;-3.51;100.00;101522.25;4928208;29;20464;-72
2020/12/02 06:21:56;;;;;;;37.67;17.93;;;;;;;-3.46;100.00;101523.34;4906520;29;21037;-72
2020/12/02 06:24:42;;;;;;;31.37;15.80;;;;;;;-3.51;100.00;101515.47;4899404;29;21030;-72
2020/12/02 06:27:38;;;;;;;30.27;15.23;;;;;;;-3.43;100.00;101520.91;4902821;29;20788;-72
2020/12/02 06:30:30;;;;;;;31.53;15.33;;;;;;;-3.45;100.00;101510.66;4934176;29;20821;-72
2020/12/02 06:33:13;;;;;;;33.60;16.03;;;;;;;-3.47;100.00;101516.47;4933548;29;20478;-72
2020/12/02 06:35:39;;;;;;;29.17;16.27;;;;;;;-3.47;100.00;101512.25;4936838;29;20477;-74
2020/12/02 06:38:23;;;;;;;32.80;16.70;;;;;;;-3.43;100.00;101515.81;4921123;29;20620;-72
2020/12/02 06:41:22;;;;;;;33.33;16.80;;;;;;;-3.55;100.00;101513.59;4901587;29;20206;-73
2020/12/02 06:43:55;;;;;;;57.23;28.33;;;;;;;-3.63;100.00;101520.88;4929803;29;20465;-72
2020/12/02 06:46:54;;;;;;;52.53;25.50;;;;;;;-3.60;100.00;101509.97;4906263;29;20886;-72
2020/12/02 06:49:21;;;;;;;40.43;20.10;;;;;;;-3.54;100.00;101515.31;4934293;29;20527;-72
2020/12/02 06:51:56;;;;;;;39.93;19.47;;;;;;;-3.31;100.00;101516.34;4904937;29;20859;-73
2020/12/02 06:54:23;;;;;;;41.10;20.90;;;;;;;-3.37;100.00;101516.09;4905127;29;20473;-72
2020/12/02 06:56:54;;;;;;;47.13;21.33;;;;;;;-3.25;100.00;101513.22;4911170;29;20480;-72
2020/12/02 06:59:20;;;;;;;45.33;21.23;;;;;;;-3.19;100.00;101507.50;4903552;29;20458;-73
2020/12/02 07:01:48;;;;;;;46.70;21.07;;;;;;;-3.26;100.00;101508.91;4903303;29;20481;-72
2020/12/02 07:04:20;;;;;;;41.23;18.70;;;;;;;-3.19;100.00;101516.03;4905704;29;20208;-72
2020/12/02 07:06:56;;;;;;;41.57;19.23;;;;;;;-3.14;100.00;101511.13;4901901;29;20879;-72
2020/12/02 07:09:23;;;;;;;44.40;21.03;;;;;;;-3.12;100.00;101506.97;4914432;29;20463;-72
2020/12/02 07:11:54;;;;;;;45.27;20.57;;;;;;;-3.17;100.00;101504.22;4905425;29;20475;-72
2020/12/02 07:14:24;;;;;;;44.07;20.07;;;;;;;-3.12;100.00;101504.41;4905083;29;20807;-72
2020/12/02 07:16:57;;;;;;;38.57;18.23;;;;;;;-3.10;100.00;101507.91;4902079;29;20467;-72
2020/12/02 07:19:26;;;;;;;35.90;19.00;;;;;;;-3.11;100.00;101506.19;4917429;29;20470;-72
2020/12/02 07:21:57;;;;;;;41.03;18.03;;;;;;;-3.10;100.00;101495.16;4907148;29;20582;-72
2020/12/02 07:24:27;;;;;;;37.47;18.30;;;;;;;-2.99;100.00;101509.25;4907704;29;20822;-72
2020/12/02 07:26:55;;;;;;;38.43;17.80;;;;;;;-2.95;100.00;101516.22;4902664;29;20463;-72
2020/12/02 07:29:23;;;;;;;36.60;17.57;;;;;;;-2.89;100.00;101507.97;4903070;29;20543;-72
2020/12/02 07:31:56;;;;;;;37.40;17.60;;;;;;;-2.84;100.00;101503.94;4902963;29;20527;-73
2020/12/02 07:34:23;;;;;;;37.43;17.33;;;;;;;-2.82;100.00;101507.41;4934012;29;20467;-72
2020/12/02 07:36:56;;;;;;;36.20;18.47;;;;;;;-2.69;100.00;101506.25;4901879;29;21027;-72
2020/12/02 07:39:24;;;;;;;41.83;17.27;;;;;;;-2.68;100.00;101502.91;4934143;29;20827;-72
2020/12/02 07:41:58;;;;;;;42.63;18.20;;;;;;;-2.68;100.00;101501.19;4903557;29;20491;-72
2020/12/02 07:44:26;;;;;;;37.57;17.10;;;;;;;-2.65;100.00;101497.06;4898290;29;21511;-72
2020/12/02 07:46:55;;;;;;;37.43;17.57;;;;;;;-2.53;100.00;101503.53;4899330;29;20484;-72
2020/12/02 07:49:22;;;;;;;41.10;17.83;;;;;;;-2.52;100.00;101496.75;4906439;29;20604;-72
2020/12/02 07:51:55;;;;;;;38.77;19.07;;;;;;;-2.50;100.00;101490.00;4902893;29;20504;-72
2020/12/02 07:54:27;;;;;;;35.93;17.97;;;;;;;-2.42;100.00;101485.22;4932960;29;20493;-72
2020/12/02 07:56:54;;;;;;;43.80;18.93;;;;;;;-2.42;100.00;101491.19;4900491;29;20500;-72
2020/12/02 07:59:24;;;;;;;40.47;20.10;;;;;;;-2.35;100.00;101484.66;4901939;29;20460;-72
2020/12/02 08:02:04;;;;;;;43.13;20.00;;;;;;;-2.34;100.00;101483.84;4930909;29;20483;-73
2020/12/02 08:04:35;;;;;;;44.47;19.60;;;;;;;-2.26;100.00;101476.50;4899790;29;20638;-72
2020/12/02 08:07:03;;;;;;;43.43;19.10;;;;;;;-2.22;100.00;101480.91;4915497;29;20210;-72
2020/12/02 08:09:34;;;;;;;43.87;19.87;;;;;;;-2.16;100.00;101481.16;4902119;29;20204;-72
2020/12/02 08:12:02;;;;;;;42.13;20.13;;;;;;;-2.10;100.00;101482.25;4919729;29;20225;-72
2020/12/02 08:14:32;;;;;;;41.00;19.13;;;;;;;-2.02;100.00;101477.47;4899386;29;20211;-72
2020/12/02 08:17:05;;;;;;;40.53;19.23;;;;;;;-2.03;100.00;101478.25;4905291;29;20618;-72
2020/12/02 08:19:34;;;;;;;44.47;20.43;;;;;;;-2.03;100.00;101470.59;4900918;29;20199;-72
2020/12/02 08:22:01;;;;;;;40.60;19.70;;;;;;;-1.98;100.00;101475.91;4931548;29;20491;-72
2020/12/02 08:24:38;;;;;;;42.00;18.93;;;;;;;-1.93;100.00;101472.69;4898600;29;20221;-72
2020/12/02 08:27:04;;;;;;;44.37;20.37;;;;;;;-1.88;100.00;101472.00;4902239;29;20457;-72
2020/12/02 08:29:33;;;;;;;42.77;20.77;;;;;;;-1.79;100.00;101468.09;4900543;29;20633;-72
2020/12/02 08:32:04;;;;;;;45.23;20.27;;;;;;;-1.76;99.71;101468.22;4897002;29;20236;-72
2020/12/02 08:34:31;;;;;;;46.73;21.97;;;;;;;-1.72;98.73;101472.63;4911246;29;20578;-72
2020/12/02 08:37:23;;;;;;;40.90;20.90;;;;;;;-1.65;98.98;101470.28;4913549;29;20216;-72
2020/12/02 08:39:52;;;;;;;45.83;20.23;;;;;;;-1.54;99.63;101471.59;4899708;29;20723;-72
2020/12/02 08:42:25;;;;;;;42.33;20.87;;;;;;;-1.49;98.73;101470.06;4908751;29;20572;-73
2020/12/02 08:45:05;;;;;;;48.40;21.37;;;;;;;-1.39;99.11;101469.59;4902765;29;20819;-72
2020/12/02 08:47:30;;;;;;;46.13;22.20;;;;;;;-1.33;99.06;101457.00;4893299;29;20204;-73
2020/12/02 08:49:56;;;;;;;42.10;22.07;;;;;;;-1.32;97.50;101468.09;4893732;29;20303;-73
2020/12/02 08:52:22;;;;;;;42.33;20.67;;;;;;;-1.22;98.18;101467.59;4892606;29;20229;-73
2020/12/02 08:54:48;;;;;;;40.80;21.23;;;;;;;-1.10;97.95;101464.63;4897928;29;20689;-72
2020/12/02 08:57:15;;;;;;;41.30;19.87;;;;;;;-1.01;97.99;101466.63;4887529;29;20205;-72
2020/12/02 08:59:41;;;;;;;48.33;21.57;;;;;;;-1.01;96.07;101470.06;4897564;29;20212;-73
2020/12/02 09:02:11;;;;;;;43.93;20.07;;;;;;;-0.84;96.77;101460.41;4895263;29;20737;-73
2020/12/02 09:04:37;;;;;;;44.30;21.03;;;;;;;-0.78;96.22;101455.47;4901949;29;20207;-73
2020/12/02 09:07:03;;;;;;;43.87;20.77;;;;;;;-0.72;95.08;101465.06;4897795;29;20204;-73
2020/12/02 09:09:29;;;;;;;44.80;20.20;;;;;;;-0.59;95.48;101466.34;4896053;29;20678;-73
2020/12/02 09:11:55;;;;;;;40.23;20.63;;;;;;;-0.50;94.47;101471.75;4910823;29;20232;-73
2020/12/02 09:14:21;;;;;;;44.07;21.53;;;;;;;-0.40;94.95;101467.81;4911332;29;20546;-73
2020/12/02 09:16:47;;;;;;;45.73;21.87;;;;;;;-0.31;94.23;101460.41;4899183;29;20211;-70
2020/12/02 09:19:16;;;;;;;40.43;20.47;;;;;;;-0.25;92.49;101462.28;4930448;29;20984;-70
2020/12/02 09:21:43;;;;;;;44.13;21.40;;;;;;;-0.18;91.69;101458.22;4896420;29;20682;-70
2020/12/02 09:24:09;;;;;;;42.00;20.03;;;;;;;-0.10;91.05;101467.91;4899351;29;20261;-70
2020/12/02 09:26:35;;;;;;;45.83;23.40;;;;;;;-0.05;91.99;101456.09;4898991;29;20733;-70
2020/12/02 09:29:02;;;;;;;40.63;20.97;;;;;;;0.00;89.86;101458.81;4899496;29;20207;-70
2020/12/02 09:31:31;;;;;;;40.63;21.30;;;;;;;0.04;90.61;101450.38;4902595;29;20223;-70
2020/12/02 09:33:58;;;;;;;43.27;22.40;;;;;;;0.10;90.30;101452.25;4911890;29;20217;-71
2020/12/02 09:36:25;;;;;;;36.33;19.70;;;;;;;0.13;88.21;101454.91;4897614;29;20401;-70
2020/12/02 09:38:52;;;;;;;35.53;17.80;;;;;;;0.16;87.91;101457.56;4931104;28;20209;-70
2020/12/02 09:41:32;;;;;;;34.57;18.03;;;;;;;0.12;86.11;101458.28;4901632;29;20331;-71
2020/12/02 09:44:14;;;;;;;31.20;16.77;;;;;;;0.21;88.28;101440.59;4901596;29;20220;-70
2020/12/02 09:46:43;;;;;;;31.77;16.87;;;;;;;0.15;84.62;101453.25;4919216;29;20209;-70
2020/12/02 09:49:10;;;;;;;31.43;16.63;;;;;;;0.13;84.89;101445.50;4899093;29;20228;-70
2020/12/02 09:51:36;;;;;;;29.80;15.50;;;;;;;0.18;86.47;101435.41;4914030;29;20224;-70
2020/12/02 09:54:02;;;;;;;30.97;16.00;;;;;;;0.20;86.30;101438.03;4899008;29;20229;-70
2020/12/02 09:56:28;;;;;;;27.67;15.03;;;;;;;0.16;84.89;101445.63;4897420;29;20574;-70
2020/12/02 09:58:57;;;;;;;31.63;17.50;;;;;;;0.15;86.10;101430.19;4893990;29;20220;-70
2020/12/02 10:01:34;;;;;;;30.10;15.87;;;;;;;0.07;84.14;101434.19;4918222;29;20633;-70
2020/12/02 10:04:27;;;;;;;28.37;16.23;;;;;;;0.07;83.71;101434.19;4899265;29;20231;-70
2020/12/02 10:07:26;;;;;;;34.27;17.77;;;;;;;0.03;83.13;101428.13;4896256;29;20206;-70
2020/12/02 10:10:03;;;;;;;29.10;15.40;;;;;;;0.05;84.40;101415.34;4897826;29;20669;-71
2020/12/02 10:12:46;;;;;;;30.80;16.03;;;;;;;0.03;84.27;101419.56;4897076;29;20224;-70
2020/12/02 10:15:27;;;;;;;28.03;15.60;;;;;;;0.05;83.67;101418.75;4900015;29;20251;-70
2020/12/02 10:18:11;;;;;;;27.37;14.87;;;;;;;0.01;82.89;101410.94;4913866;29;20208;-70
2020/12/02 10:20:43;;;;;;;28.43;15.33;;;;;;;-0.01;83.21;101406.63;4898143;29;20394;-70
2020/12/02 10:23:32;;;;;;;25.97;14.00;;;;;;;-0.03;82.95;101404.88;4931370;29;20251;-71
2020/12/02 10:26:30;;;;;;;28.33;15.60;;;;;;;-0.03;83.06;101392.91;4914958;29;20241;-70
2020/12/02 10:28:58;;;;;;;28.30;14.83;;;;;;;-0.05;82.53;101386.00;4899406;29;20358;-70
2020/12/02 10:31:37;;;;;;;28.27;15.83;;;;;;;-0.06;83.34;101382.56;4917911;29;20330;-70
2020/12/02 10:34:11;;;;;;;27.97;14.80;;;;;;;-0.05;83.22;101383.44;4916067;29;20200;-70
2020/12/02 10:36:42;;;;;;;27.40;14.57;;;;;;;-0.05;82.51;101389.44;4895100;29;20236;-70
2020/12/02 10:39:11;;;;;;;30.00;15.70;;;;;;;-0.04;82.12;101382.59;4902003;29;20281;-70
2020/12/02 10:41:55;;;;;;;26.63;14.83;;;;;;;-0.06;81.84;101377.44;4913010;29;20216;-70
2020/12/02 10:44:35;;;;;;;29.43;15.27;;;;;;;-0.05;82.04;101371.50;4930062;29;20208;-70
2020/12/02 10:47:28;;;;;;;27.63;14.43;;;;;;;-0.08;81.90;101373.09;4898233;29;20608;-70
2020/12/02 10:49:55;;;;;;;27.23;13.93;;;;;;;-0.06;81.10;101366.31;4930114;29;20300;-70
2020/12/02 10:52:22;;;;;;;36.27;18.23;;;;;;;-0.07;81.19;101362.88;4897325;29;20297;-71
2020/12/02 10:54:50;;;;;;;32.53;16.13;;;;;;;-0.07;81.03;101364.56;4902795;29;20362;-70
2020/12/02 10:57:19;;;;;;;30.57;15.47;;;;;;;-0.05;81.97;101355.25;4902479;28;20248;-70
2020/12/02 10:59:50;;;;;;;29.73;15.50;;;;;;;-0.04;81.67;101359.53;4910630;29;20753;-70
2020/12/02 11:02:20;;;;;;;32.53;16.37;;;;;;;-0.03;81.23;101353.59;4900799;29;20233;-70
2020/12/02 11:04:47;;;;;;;34.00;16.97;;;;;;;-0.03;80.70;101348.47;4939970;29;20212;-71
2020/12/02 11:07:27;;;;;;;32.10;15.77;;;;;;;-0.04;80.17;101355.25;4902712;29;20216;-70
2020/12/02 11:10:02;;;;;;;27.10;14.63;;;;;;;-0.05;80.78;101345.84;4901599;29;20196;-71
2020/12/02 11:12:44;;;;;;;27.30;14.27;;;;;;;-0.04;80.43;101347.56;4916844;29;21311;-71
2020/12/02 11:15:22;;;;;;;26.83;13.77;;;;;;;-0.04;80.37;101339.03;4903823;29;20216;-71
2020/12/02 11:18:02;;;;;;;28.50;14.17;;;;;;;-0.03;80.89;101335.63;4902940;29;20204;-71
2020/12/02 11:20:36;;;;;;;27.53;13.70;;;;;;;-0.04;80.36;101329.63;4915179;29;20243;-71